sensor_id;sensor_type;location;lat;lon;timestamp;temperature;humidity
10905;DHT22;5505;51.450;9.254;2023-11-19T00:01:11;6.80;99.90
10905;DHT22;5505;51.450;9.254;2023-11-19T00:03:58;6.80;99.90
10905;DHT22;5505;51.450;9.254;2023-11-19T00:06:44;6.80;99.90
10905;DHT22;5505;51.450;9.254;2023-11-19T00:09:32;6.80;99.90
10905;DHT22;5505;51.450;9.254;2023-11-19T00:12:22;7.90;99.90
10905;DHT22;5505;51.450;9.254;2023-11-19T00:15:10;7.00;99.90
10905;DHT22;5505;51.450;9.254;2023-11-19T00:17:57;6.80;99.90
10905;DHT22;5505;51.450;9.254;2023-11-19T00:20:44;6.90;99.90
10905;DHT22;5505;51.450;9.254;2023-11-19T00:23:31;6.90;99.90
10905;DHT22;5505;51.450;9.254;2023-11-19T00:26:19;6.80;99.90
10905;DHT22;5505;51.450;9.254;2023-11-19T00:29:06;6.90;99.90
10905;DHT22;5505;51.450;9.254;2023-11-19T00:31:53;6.90;99.90
10905;DHT22;5505;51.450;9.254;2023-11-19T00:34:40;6.90;99.90
10905;DHT22;5505;51.450;9.254;2023-11-19T00:37:26;6.90;99.90
10905;DHT22;5505;51.450;9.254;2023-11-19T00:40:13;7.00;99.90
10905;DHT22;5505;51.450;9.254;2023-11-19T00:43:02;7.00;99.90
10905;DHT22;5505;51.450;9.254;2023-11-19T00:45:49;7.00;99.90
10905;DHT22;5505;51.450;9.254;2023-11-19T00:48:36;7.00;99.90
10905;DHT22;5505;51.450;9.254;2023-11-19T00:51:23;8.40;99.90
10905;DHT22;5505;51.450;9.254;2023-11-19T00:54:10;7.10;99.90
10905;DHT22;5505;51.450;9.254;2023-11-19T00:56:56;7.10;99.90
10905;DHT22;5505;51.450;9.254;2023-11-19T00:59:44;7.10;99.90
10905;DHT22;5505;51.450;9.254;2023-11-19T01:02:32;7.10;99.90
10905;DHT22;5505;51.450;9.254;2023-11-19T01:05:20;8.10;99.90
10905;DHT22;5505;51.450;9.254;2023-11-19T01:08:08;7.70;99.90
10905;DHT22;5505;51.450;9.254;2023-11-19T01:10:54;7.20;99.90
10905;DHT22;5505;51.450;9.254;2023-11-19T01:13:41;9.60;99.90
10905;DHT22;5505;51.450;9.254;2023-11-19T01:16:30;7.90;99.90
10905;DHT22;5505;51.450;9.254;2023-11-19T01:19:17;7.20;99.90
10905;DHT22;5505;51.450;9.254;2023-11-19T01:22:04;7.20;99.90
10905;DHT22;5505;51.450;9.254;2023-11-19T01:24:51;8.80;99.90
10905;DHT22;5505;51.450;9.254;2023-11-19T01:27:39;7.30;99.90
10905;DHT22;5505;51.450;9.254;2023-11-19T01:30:26;7.30;99.90
10905;DHT22;5505;51.450;9.254;2023-11-19T01:33:14;7.30;99.90
10905;DHT22;5505;51.450;9.254;2023-11-19T01:36:01;7.30;99.90
10905;DHT22;5505;51.450;9.254;2023-11-19T01:38:49;7.30;99.90
10905;DHT22;5505;51.450;9.254;2023-11-19T01:41:36;7.30;99.90
10905;DHT22;5505;51.450;9.254;2023-11-19T01:44:24;8.40;99.90
10905;DHT22;5505;51.450;9.254;2023-11-19T01:47:11;7.30;99.90
10905;DHT22;5505;51.450;9.254;2023-11-19T01:49:59;6.70;99.90
10905;DHT22;5505;51.450;9.254;2023-11-19T01:52:46;7.30;99.90
10905;DHT22;5505;51.450;9.254;2023-11-19T01:55:33;7.60;99.90
10905;DHT22;5505;51.450;9.254;2023-11-19T01:58:20;7.40;99.90
10905;DHT22;5505;51.450;9.254;2023-11-19T02:01:07;7.30;99.90
10905;DHT22;5505;51.450;9.254;2023-11-19T02:03:53;8.80;99.90
10905;DHT22;5505;51.450;9.254;2023-11-19T02:06:42;7.30;99.90
10905;DHT22;5505;51.450;9.254;2023-11-19T02:09:29;7.40;99.90
10905;DHT22;5505;51.450;9.254;2023-11-19T02:12:16;7.40;99.90
10905;DHT22;5505;51.450;9.254;2023-11-19T02:15:03;9.00;99.90
10905;DHT22;5505;51.450;9.254;2023-11-19T02:17:50;7.50;99.90
10905;DHT22;5505;51.450;9.254;2023-11-19T02:20:37;7.50;99.90
10905;DHT22;5505;51.450;9.254;2023-11-19T02:23:26;7.60;99.90
10905;DHT22;5505;51.450;9.254;2023-11-19T02:26:18;8.20;99.90
10905;DHT22;5505;51.450;9.254;2023-11-19T02:29:10;7.70;99.90
10905;DHT22;5505;51.450;9.254;2023-11-19T02:31:58;7.60;99.90
10905;DHT22;5505;51.450;9.254;2023-11-19T02:34:45;7.60;99.90
10905;DHT22;5505;51.450;9.254;2023-11-19T02:37:32;7.60;99.90
10905;DHT22;5505;51.450;9.254;2023-11-19T02:40:19;7.60;99.90
10905;DHT22;5505;51.450;9.254;2023-11-19T02:43:09;7.70;99.90
10905;DHT22;5505;51.450;9.254;2023-11-19T02:45:57;7.70;99.90
10905;DHT22;5505;51.450;9.254;2023-11-19T02:48:44;8.60;99.90
10905;DHT22;5505;51.450;9.254;2023-11-19T02:51:31;7.70;99.90
10905;DHT22;5505;51.450;9.254;2023-11-19T02:54:18;7.70;99.90
10905;DHT22;5505;51.450;9.254;2023-11-19T02:57:06;7.70;99.90
10905;DHT22;5505;51.450;9.254;2023-11-19T02:59:55;7.80;99.90
10905;DHT22;5505;51.450;9.254;2023-11-19T03:02:43;8.40;99.90
10905;DHT22;5505;51.450;9.254;2023-11-19T03:05:31;7.90;99.90
10905;DHT22;5505;51.450;9.254;2023-11-19T03:08:18;7.90;99.90
10905;DHT22;5505;51.450;9.254;2023-11-19T03:11:05;8.60;99.90
10905;DHT22;5505;51.450;9.254;2023-11-19T03:13:51;7.90;99.90
10905;DHT22;5505;51.450;9.254;2023-11-19T03:16:38;8.00;99.90
10905;DHT22;5505;51.450;9.254;2023-11-19T03:19:26;8.70;99.90
10905;DHT22;5505;51.450;9.254;2023-11-19T03:22:13;7.90;99.90
10905;DHT22;5505;51.450;9.254;2023-11-19T03:25:00;9.40;99.90
10905;DHT22;5505;51.450;9.254;2023-11-19T03:27:46;8.80;99.90
10905;DHT22;5505;51.450;9.254;2023-11-19T03:30:33;7.90;99.90
10905;DHT22;5505;51.450;9.254;2023-11-19T03:33:20;7.90;99.90
10905;DHT22;5505;51.450;9.254;2023-11-19T03:36:08;8.00;99.90
10905;DHT22;5505;51.450;9.254;2023-11-19T03:38:56;8.00;99.90
10905;DHT22;5505;51.450;9.254;2023-11-19T03:41:45;8.00;99.90
10905;DHT22;5505;51.450;9.254;2023-11-19T03:44:32;8.10;99.90
10905;DHT22;5505;51.450;9.254;2023-11-19T03:47:19;8.10;99.90
10905;DHT22;5505;51.450;9.254;2023-11-19T03:50:06;8.00;99.90
10905;DHT22;5505;51.450;9.254;2023-11-19T03:52:55;8.10;99.90
10905;DHT22;5505;51.450;9.254;2023-11-19T03:55:42;8.10;99.90
10905;DHT22;5505;51.450;9.254;2023-11-19T03:58:29;8.10;99.90
10905;DHT22;5505;51.450;9.254;2023-11-19T04:01:15;8.10;99.90
10905;DHT22;5505;51.450;9.254;2023-11-19T04:04:02;8.10;99.90
10905;DHT22;5505;51.450;9.254;2023-11-19T04:06:49;8.10;99.90
10905;DHT22;5505;51.450;9.254;2023-11-19T04:09:37;8.70;99.90
10905;DHT22;5505;51.450;9.254;2023-11-19T04:12:24;8.10;99.90
10905;DHT22;5505;51.450;9.254;2023-11-19T04:15:11;8.10;99.90
10905;DHT22;5505;51.450;9.254;2023-11-19T04:17:58;8.10;99.90
10905;DHT22;5505;51.450;9.254;2023-11-19T04:20:46;8.20;99.90
10905;DHT22;5505;51.450;9.254;2023-11-19T04:23:32;8.20;99.90
10905;DHT22;5505;51.450;9.254;2023-11-19T04:26:20;8.20;99.90
10905;DHT22;5505;51.450;9.254;2023-11-19T04:29:08;8.30;99.90
10905;DHT22;5505;51.450;9.254;2023-11-19T04:31:56;8.30;99.90
10905;DHT22;5505;51.450;9.254;2023-11-19T04:34:43;8.90;99.90
10905;DHT22;5505;51.450;9.254;2023-11-19T04:37:30;8.40;99.90
10905;DHT22;5505;51.450;9.254;2023-11-19T04:40:17;8.30;99.90
10905;DHT22;5505;51.450;9.254;2023-11-19T04:43:06;8.40;99.90
10905;DHT22;5505;51.450;9.254;2023-11-19T04:45:52;8.50;99.90
10905;DHT22;5505;51.450;9.254;2023-11-19T04:48:39;8.50;99.90
10905;DHT22;5505;51.450;9.254;2023-11-19T04:51:26;8.90;99.90
10905;DHT22;5505;51.450;9.254;2023-11-19T04:54:13;8.50;99.90
10905;DHT22;5505;51.450;9.254;2023-11-19T04:57:00;8.50;99.90
10905;DHT22;5505;51.450;9.254;2023-11-19T04:59:48;8.60;99.90
10905;DHT22;5505;51.450;9.254;2023-11-19T05:02:35;8.60;99.90
10905;DHT22;5505;51.450;9.254;2023-11-19T05:05:22;8.60;99.90
10905;DHT22;5505;51.450;9.254;2023-11-19T05:08:09;8.60;99.90
10905;DHT22;5505;51.450;9.254;2023-11-19T05:10:57;8.70;99.90
10905;DHT22;5505;51.450;9.254;2023-11-19T05:13:44;9.20;99.90
10905;DHT22;5505;51.450;9.254;2023-11-19T05:16:33;8.70;99.90
10905;DHT22;5505;51.450;9.254;2023-11-19T05:19:20;8.80;99.90
10905;DHT22;5505;51.450;9.254;2023-11-19T05:22:07;8.70;99.90
10905;DHT22;5505;51.450;9.254;2023-11-19T05:24:54;8.70;99.90
10905;DHT22;5505;51.450;9.254;2023-11-19T05:27:41;8.70;99.90
10905;DHT22;5505;51.450;9.254;2023-11-19T05:30:28;8.70;99.90
10905;DHT22;5505;51.450;9.254;2023-11-19T05:33:16;10.00;99.90
10905;DHT22;5505;51.450;9.254;2023-11-19T05:36:03;8.80;99.90
10905;DHT22;5505;51.450;9.254;2023-11-19T05:38:50;8.90;99.90
10905;DHT22;5505;51.450;9.254;2023-11-19T05:41:37;8.90;99.90
10905;DHT22;5505;51.450;9.254;2023-11-19T05:44:23;8.90;99.90
10905;DHT22;5505;51.450;9.254;2023-11-19T05:47:10;9.30;99.90
10905;DHT22;5505;51.450;9.254;2023-11-19T05:49:58;9.00;99.90
10905;DHT22;5505;51.450;9.254;2023-11-19T05:52:45;9.00;99.90
10905;DHT22;5505;51.450;9.254;2023-11-19T05:55:33;9.00;99.90
10905;DHT22;5505;51.450;9.254;2023-11-19T05:58:23;9.00;99.90
10905;DHT22;5505;51.450;9.254;2023-11-19T06:01:11;9.00;99.90
10905;DHT22;5505;51.450;9.254;2023-11-19T06:03:58;9.10;99.90
10905;DHT22;5505;51.450;9.254;2023-11-19T06:06:48;9.10;99.90
10905;DHT22;5505;51.450;9.254;2023-11-19T06:09:34;9.20;99.90
10905;DHT22;5505;51.450;9.254;2023-11-19T06:12:21;9.10;99.90
10905;DHT22;5505;51.450;9.254;2023-11-19T06:15:09;9.20;99.90
10905;DHT22;5505;51.450;9.254;2023-11-19T06:17:55;9.20;99.90
10905;DHT22;5505;51.450;9.254;2023-11-19T06:20:44;9.20;99.90
10905;DHT22;5505;51.450;9.254;2023-11-19T06:23:33;9.20;99.90
10905;DHT22;5505;51.450;9.254;2023-11-19T06:26:19;9.20;99.90
10905;DHT22;5505;51.450;9.254;2023-11-19T06:29:07;10.20;99.90
10905;DHT22;5505;51.450;9.254;2023-11-19T06:31:54;9.20;99.90
10905;DHT22;5505;51.450;9.254;2023-11-19T06:34:41;9.20;99.90
10905;DHT22;5505;51.450;9.254;2023-11-19T06:37:28;9.20;99.90
10905;DHT22;5505;51.450;9.254;2023-11-19T06:40:16;9.20;99.90
10905;DHT22;5505;51.450;9.254;2023-11-19T06:43:03;9.20;99.90
10905;DHT22;5505;51.450;9.254;2023-11-19T06:45:50;9.20;99.90
10905;DHT22;5505;51.450;9.254;2023-11-19T06:48:37;9.20;99.90
10905;DHT22;5505;51.450;9.254;2023-11-19T06:51:23;9.30;99.90
10905;DHT22;5505;51.450;9.254;2023-11-19T06:54:10;9.80;99.90
10905;DHT22;5505;51.450;9.254;2023-11-19T06:56:58;9.40;99.90
10905;DHT22;5505;51.450;9.254;2023-11-19T06:59:45;9.40;99.90
10905;DHT22;5505;51.450;9.254;2023-11-19T07:02:32;10.80;99.90
10905;DHT22;5505;51.450;9.254;2023-11-19T07:05:19;9.40;99.90
10905;DHT22;5505;51.450;9.254;2023-11-19T07:08:06;9.40;99.90
10905;DHT22;5505;51.450;9.254;2023-11-19T07:10:53;9.40;99.90
10905;DHT22;5505;51.450;9.254;2023-11-19T07:13:41;9.40;99.90
10905;DHT22;5505;51.450;9.254;2023-11-19T07:16:28;9.60;99.90
10905;DHT22;5505;51.450;9.254;2023-11-19T07:19:15;9.70;99.90
10905;DHT22;5505;51.450;9.254;2023-11-19T07:22:02;9.80;99.90
10905;DHT22;5505;51.450;9.254;2023-11-19T07:24:49;9.90;99.90
10905;DHT22;5505;51.450;9.254;2023-11-19T07:27:36;9.90;99.90
10905;DHT22;5505;51.450;9.254;2023-11-19T07:30:25;9.90;99.90
10905;DHT22;5505;51.450;9.254;2023-11-19T07:33:12;9.90;99.90
10905;DHT22;5505;51.450;9.254;2023-11-19T07:35:59;9.90;99.90
10905;DHT22;5505;51.450;9.254;2023-11-19T07:38:46;10.10;99.90
10905;DHT22;5505;51.450;9.254;2023-11-19T07:41:34;9.80;99.90
10905;DHT22;5505;51.450;9.254;2023-11-19T07:44:21;9.80;99.90
10905;DHT22;5505;51.450;9.254;2023-11-19T07:47:09;9.90;99.90
10905;DHT22;5505;51.450;9.254;2023-11-19T07:49:55;10.00;99.90
10905;DHT22;5505;51.450;9.254;2023-11-19T07:52:42;10.50;99.90
10905;DHT22;5505;51.450;9.254;2023-11-19T07:55:29;10.30;99.90
10905;DHT22;5505;51.450;9.254;2023-11-19T07:58:16;10.40;99.90
10905;DHT22;5505;51.450;9.254;2023-11-19T08:01:04;10.50;99.90
10905;DHT22;5505;51.450;9.254;2023-11-19T08:03:52;10.60;99.90
10905;DHT22;5505;51.450;9.254;2023-11-19T08:06:39;10.70;99.90
10905;DHT22;5505;51.450;9.254;2023-11-19T08:09:26;10.80;99.90
10905;DHT22;5505;51.450;9.254;2023-11-19T08:12:13;10.80;99.90
10905;DHT22;5505;51.450;9.254;2023-11-19T08:15:01;10.90;99.90
10905;DHT22;5505;51.450;9.254;2023-11-19T08:17:48;10.90;99.90
10905;DHT22;5505;51.450;9.254;2023-11-19T08:20:36;11.00;99.90
10905;DHT22;5505;51.450;9.254;2023-11-19T08:23:23;11.00;99.90
10905;DHT22;5505;51.450;9.254;2023-11-19T08:26:11;12.20;99.90
10905;DHT22;5505;51.450;9.254;2023-11-19T08:28:57;10.90;99.90
10905;DHT22;5505;51.450;9.254;2023-11-19T08:31:44;10.90;99.90
10905;DHT22;5505;51.450;9.254;2023-11-19T08:34:31;10.80;99.90
10905;DHT22;5505;51.450;9.254;2023-11-19T08:37:19;10.80;99.90
10905;DHT22;5505;51.450;9.254;2023-11-19T08:40:08;10.80;99.90
10905;DHT22;5505;51.450;9.254;2023-11-19T08:42:55;10.70;99.90
10905;DHT22;5505;51.450;9.254;2023-11-19T08:45:42;11.00;99.90
10905;DHT22;5505;51.450;9.254;2023-11-19T08:48:29;10.70;99.90
10905;DHT22;5505;51.450;9.254;2023-11-19T08:51:15;11.60;99.90
10905;DHT22;5505;51.450;9.254;2023-11-19T08:54:04;10.80;99.90
10905;DHT22;5505;51.450;9.254;2023-11-19T08:56:51;10.90;99.90
10905;DHT22;5505;51.450;9.254;2023-11-19T08:59:38;10.90;99.90
10905;DHT22;5505;51.450;9.254;2023-11-19T09:02:25;11.30;99.90
10905;DHT22;5505;51.450;9.254;2023-11-19T09:05:11;11.00;99.90
10905;DHT22;5505;51.450;9.254;2023-11-19T09:07:58;11.20;99.90
10905;DHT22;5505;51.450;9.254;2023-11-19T09:10:46;11.10;99.90
10905;DHT22;5505;51.450;9.254;2023-11-19T09:13:33;11.20;99.90
10905;DHT22;5505;51.450;9.254;2023-11-19T09:16:20;11.30;99.90
10905;DHT22;5505;51.450;9.254;2023-11-19T09:19:07;11.40;99.90
10905;DHT22;5505;51.450;9.254;2023-11-19T09:21:54;11.50;99.90
10905;DHT22;5505;51.450;9.254;2023-11-19T09:24:40;11.50;99.90
10905;DHT22;5505;51.450;9.254;2023-11-19T09:27:30;11.60;99.90
10905;DHT22;5505;51.450;9.254;2023-11-19T09:30:17;11.70;99.90
10905;DHT22;5505;51.450;9.254;2023-11-19T09:33:04;11.80;99.90
10905;DHT22;5505;51.450;9.254;2023-11-19T09:35:51;11.70;99.90
10905;DHT22;5505;51.450;9.254;2023-11-19T09:38:37;11.80;99.90
10905;DHT22;5505;51.450;9.254;2023-11-19T09:41:24;13.00;99.90
10905;DHT22;5505;51.450;9.254;2023-11-19T09:44:14;11.90;99.90
10905;DHT22;5505;51.450;9.254;2023-11-19T09:47:04;11.90;99.90
10905;DHT22;5505;51.450;9.254;2023-11-19T09:49:52;11.90;99.90
10905;DHT22;5505;51.450;9.254;2023-11-19T09:52:39;11.90;99.90
10905;DHT22;5505;51.450;9.254;2023-11-19T09:55:26;11.90;99.90
10905;DHT22;5505;51.450;9.254;2023-11-19T09:58:14;11.90;99.90
10905;DHT22;5505;51.450;9.254;2023-11-19T10:01:03;11.80;99.90
10905;DHT22;5505;51.450;9.254;2023-11-19T10:03:55;11.70;99.90
10905;DHT22;5505;51.450;9.254;2023-11-19T10:06:42;11.80;99.90
10905;DHT22;5505;51.450;9.254;2023-11-19T10:09:30;11.70;99.90
10905;DHT22;5505;51.450;9.254;2023-11-19T10:12:16;11.70;99.90
10905;DHT22;5505;51.450;9.254;2023-11-19T10:15:05;11.90;99.90
10905;DHT22;5505;51.450;9.254;2023-11-19T10:17:56;11.80;99.90
10905;DHT22;5505;51.450;9.254;2023-11-19T10:20:43;11.70;99.90
10905;DHT22;5505;51.450;9.254;2023-11-19T10:23:30;11.70;99.90
10905;DHT22;5505;51.450;9.254;2023-11-19T10:26:17;11.70;99.90
10905;DHT22;5505;51.450;9.254;2023-11-19T10:29:04;11.80;99.90
10905;DHT22;5505;51.450;9.254;2023-11-19T10:31:56;11.90;99.90
10905;DHT22;5505;51.450;9.254;2023-11-19T10:34:44;12.00;99.90
10905;DHT22;5505;51.450;9.254;2023-11-19T10:37:31;12.00;99.90
10905;DHT22;5505;51.450;9.254;2023-11-19T10:40:20;12.00;99.90
10905;DHT22;5505;51.450;9.254;2023-11-19T10:43:07;13.30;99.90
10905;DHT22;5505;51.450;9.254;2023-11-19T10:46:09;12.10;99.90
10905;DHT22;5505;51.450;9.254;2023-11-19T10:48:57;12.20;99.90
10905;DHT22;5505;51.450;9.254;2023-11-19T10:51:45;12.10;99.90
10905;DHT22;5505;51.450;9.254;2023-11-19T10:54:34;12.10;99.90
10905;DHT22;5505;51.450;9.254;2023-11-19T10:57:21;12.00;99.90
10905;DHT22;5505;51.450;9.254;2023-11-19T11:00:14;12.00;99.90
10905;DHT22;5505;51.450;9.254;2023-11-19T11:03:08;12.00;99.90
10905;DHT22;5505;51.450;9.254;2023-11-19T11:05:56;12.00;99.90
10905;DHT22;5505;51.450;9.254;2023-11-19T11:08:46;12.00;99.90
10905;DHT22;5505;51.450;9.254;2023-11-19T11:11:34;12.00;99.90
10905;DHT22;5505;51.450;9.254;2023-11-19T11:14:21;12.00;99.90
10905;DHT22;5505;51.450;9.254;2023-11-19T11:17:09;12.20;99.90
10905;DHT22;5505;51.450;9.254;2023-11-19T11:19:58;11.90;99.90
10905;DHT22;5505;51.450;9.254;2023-11-19T11:22:54;11.90;99.90
10905;DHT22;5505;51.450;9.254;2023-11-19T11:25:52;11.90;99.90
10905;DHT22;5505;51.450;9.254;2023-11-19T11:28:48;11.90;99.90
10905;DHT22;5505;51.450;9.254;2023-11-19T11:31:45;13.10;99.90
10905;DHT22;5505;51.450;9.254;2023-11-19T11:34:53;11.80;99.90
10905;DHT22;5505;51.450;9.254;2023-11-19T11:37:47;11.80;99.90
10905;DHT22;5505;51.450;9.254;2023-11-19T11:40:36;11.80;99.90
10905;DHT22;5505;51.450;9.254;2023-11-19T11:43:46;11.80;99.90
10905;DHT22;5505;51.450;9.254;2023-11-19T11:46:55;11.80;99.90
10905;DHT22;5505;51.450;9.254;2023-11-19T11:49:42;11.80;99.90
10905;DHT22;5505;51.450;9.254;2023-11-19T11:52:29;11.90;99.90
10905;DHT22;5505;51.450;9.254;2023-11-19T11:55:16;11.80;99.90
10905;DHT22;5505;51.450;9.254;2023-11-19T11:58:03;11.80;99.90
10905;DHT22;5505;51.450;9.254;2023-11-19T12:00:53;11.80;99.90
10905;DHT22;5505;51.450;9.254;2023-11-19T12:03:40;11.80;99.90
10905;DHT22;5505;51.450;9.254;2023-11-19T12:06:27;11.80;99.90
10905;DHT22;5505;51.450;9.254;2023-11-19T12:09:14;11.90;99.90
10905;DHT22;5505;51.450;9.254;2023-11-19T12:12:28;12.20;99.90
10905;DHT22;5505;51.450;9.254;2023-11-19T12:15:15;11.90;99.90
10905;DHT22;5505;51.450;9.254;2023-11-19T12:18:08;11.90;99.90
10905;DHT22;5505;51.450;9.254;2023-11-19T12:20:55;11.90;99.90
10905;DHT22;5505;51.450;9.254;2023-11-19T12:23:46;11.90;99.90
10905;DHT22;5505;51.450;9.254;2023-11-19T12:26:38;11.90;99.90
10905;DHT22;5505;51.450;9.254;2023-11-19T12:29:25;11.90;99.90
10905;DHT22;5505;51.450;9.254;2023-11-19T12:32:12;11.90;99.90
10905;DHT22;5505;51.450;9.254;2023-11-19T12:35:03;12.00;99.90
10905;DHT22;5505;51.450;9.254;2023-11-19T12:37:51;12.00;99.90
10905;DHT22;5505;51.450;9.254;2023-11-19T12:40:38;12.00;99.90
10905;DHT22;5505;51.450;9.254;2023-11-19T12:43:25;12.00;99.90
10905;DHT22;5505;51.450;9.254;2023-11-19T12:46:18;12.00;99.90
10905;DHT22;5505;51.450;9.254;2023-11-19T12:49:06;12.10;99.90
10905;DHT22;5505;51.450;9.254;2023-11-19T12:51:54;12.00;99.90
10905;DHT22;5505;51.450;9.254;2023-11-19T12:54:41;12.10;99.90
10905;DHT22;5505;51.450;9.254;2023-11-19T12:57:38;12.10;99.90
10905;DHT22;5505;51.450;9.254;2023-11-19T13:00:26;13.40;99.90
10905;DHT22;5505;51.450;9.254;2023-11-19T13:03:29;12.20;99.90
10905;DHT22;5505;51.450;9.254;2023-11-19T13:06:16;12.20;99.90
10905;DHT22;5505;51.450;9.254;2023-11-19T13:09:06;12.20;99.90
10905;DHT22;5505;51.450;9.254;2023-11-19T13:11:54;12.20;99.90
10905;DHT22;5505;51.450;9.254;2023-11-19T13:14:41;12.30;99.90
10905;DHT22;5505;51.450;9.254;2023-11-19T13:17:30;12.40;99.90
10905;DHT22;5505;51.450;9.254;2023-11-19T13:20:17;12.30;99.90
10905;DHT22;5505;51.450;9.254;2023-11-19T13:23:05;12.30;99.90
10905;DHT22;5505;51.450;9.254;2023-11-19T13:25:54;12.20;99.90
10905;DHT22;5505;51.450;9.254;2023-11-19T13:28:41;12.20;99.90
10905;DHT22;5505;51.450;9.254;2023-11-19T13:31:28;12.20;99.90
10905;DHT22;5505;51.450;9.254;2023-11-19T13:34:15;12.20;99.90
10905;DHT22;5505;51.450;9.254;2023-11-19T13:37:01;12.20;99.90
10905;DHT22;5505;51.450;9.254;2023-11-19T13:39:48;12.20;99.90
10905;DHT22;5505;51.450;9.254;2023-11-19T13:42:37;12.30;99.90
10905;DHT22;5505;51.450;9.254;2023-11-19T13:45:26;12.20;99.90
10905;DHT22;5505;51.450;9.254;2023-11-19T13:48:13;12.20;99.90
10905;DHT22;5505;51.450;9.254;2023-11-19T13:50:59;12.20;99.90
10905;DHT22;5505;51.450;9.254;2023-11-19T13:53:46;12.20;99.90
10905;DHT22;5505;51.450;9.254;2023-11-19T13:56:33;12.10;99.90
10905;DHT22;5505;51.450;9.254;2023-11-19T13:59:21;12.20;99.90
10905;DHT22;5505;51.450;9.254;2023-11-19T14:02:08;12.10;99.90
10905;DHT22;5505;51.450;9.254;2023-11-19T14:04:55;12.10;99.90
10905;DHT22;5505;51.450;9.254;2023-11-19T14:07:43;12.00;99.90
10905;DHT22;5505;51.450;9.254;2023-11-19T14:10:31;12.00;99.90
10905;DHT22;5505;51.450;9.254;2023-11-19T14:13:18;11.90;99.90
10905;DHT22;5505;51.450;9.254;2023-11-19T14:16:07;11.90;99.90
10905;DHT22;5505;51.450;9.254;2023-11-19T14:18:54;11.90;99.90
10905;DHT22;5505;51.450;9.254;2023-11-19T14:21:41;11.90;99.90
10905;DHT22;5505;51.450;9.254;2023-11-19T14:24:27;12.30;99.90
10905;DHT22;5505;51.450;9.254;2023-11-19T14:27:14;11.80;99.90
10905;DHT22;5505;51.450;9.254;2023-11-19T14:30:03;11.80;99.90
10905;DHT22;5505;51.450;9.254;2023-11-19T14:32:52;11.70;99.90
10905;DHT22;5505;51.450;9.254;2023-11-19T14:35:39;11.70;99.90
10905;DHT22;5505;51.450;9.254;2023-11-19T14:38:26;11.90;99.90
10905;DHT22;5505;51.450;9.254;2023-11-19T14:41:12;11.70;99.90
10905;DHT22;5505;51.450;9.254;2023-11-19T14:43:59;11.70;99.90
10905;DHT22;5505;51.450;9.254;2023-11-19T14:46:47;11.70;99.90
10905;DHT22;5505;51.450;9.254;2023-11-19T14:49:36;11.60;99.90
10905;DHT22;5505;51.450;9.254;2023-11-19T14:52:23;11.60;99.90
10905;DHT22;5505;51.450;9.254;2023-11-19T14:55:10;11.60;99.90
10905;DHT22;5505;51.450;9.254;2023-11-19T14:57:57;11.50;99.90
10905;DHT22;5505;51.450;9.254;2023-11-19T15:00:43;11.50;99.90
10905;DHT22;5505;51.450;9.254;2023-11-19T15:03:31;12.60;99.90
10905;DHT22;5505;51.450;9.254;2023-11-19T15:06:23;11.90;99.90
10905;DHT22;5505;51.450;9.254;2023-11-19T15:09:10;11.40;99.90
10905;DHT22;5505;51.450;9.254;2023-11-19T15:12:02;12.20;99.90
10905;DHT22;5505;51.450;9.254;2023-11-19T15:14:49;11.40;99.90
10905;DHT22;5505;51.450;9.254;2023-11-19T15:17:36;11.40;99.90
10905;DHT22;5505;51.450;9.254;2023-11-19T15:20:22;9.30;99.90
10905;DHT22;5505;51.450;9.254;2023-11-19T15:23:10;11.30;99.90
10905;DHT22;5505;51.450;9.254;2023-11-19T15:25:57;11.30;99.90
10905;DHT22;5505;51.450;9.254;2023-11-19T15:28:44;11.30;99.90
10905;DHT22;5505;51.450;9.254;2023-11-19T15:31:31;11.40;99.90
10905;DHT22;5505;51.450;9.254;2023-11-19T15:34:18;11.20;99.90
10905;DHT22;5505;51.450;9.254;2023-11-19T15:37:05;11.10;99.90
10905;DHT22;5505;51.450;9.254;2023-11-19T15:39:53;11.20;99.90
10905;DHT22;5505;51.450;9.254;2023-11-19T15:42:41;11.10;99.90
10905;DHT22;5505;51.450;9.254;2023-11-19T15:45:28;11.00;99.90
10905;DHT22;5505;51.450;9.254;2023-11-19T15:48:15;11.00;99.90
10905;DHT22;5505;51.450;9.254;2023-11-19T15:51:04;11.20;99.90
10905;DHT22;5505;51.450;9.254;2023-11-19T15:53:51;11.00;99.90
10905;DHT22;5505;51.450;9.254;2023-11-19T15:56:39;11.00;99.90
10905;DHT22;5505;51.450;9.254;2023-11-19T15:59:25;11.00;99.90
10905;DHT22;5505;51.450;9.254;2023-11-19T16:02:12;11.00;99.90
10905;DHT22;5505;51.450;9.254;2023-11-19T16:04:59;11.00;99.90
10905;DHT22;5505;51.450;9.254;2023-11-19T16:07:46;11.00;99.90
10905;DHT22;5505;51.450;9.254;2023-11-19T16:10:32;11.00;99.90
10905;DHT22;5505;51.450;9.254;2023-11-19T16:13:21;11.00;99.90
10905;DHT22;5505;51.450;9.254;2023-11-19T16:16:08;10.90;99.90
10905;DHT22;5505;51.450;9.254;2023-11-19T16:18:55;11.00;99.90
10905;DHT22;5505;51.450;9.254;2023-11-19T16:21:41;10.90;99.90
10905;DHT22;5505;51.450;9.254;2023-11-19T16:24:28;10.80;99.90
10905;DHT22;5505;51.450;9.254;2023-11-19T16:27:15;10.90;99.90
10905;DHT22;5505;51.450;9.254;2023-11-19T16:30:04;11.40;99.90
10905;DHT22;5505;51.450;9.254;2023-11-19T16:32:53;10.90;99.90
10905;DHT22;5505;51.450;9.254;2023-11-19T16:35:40;10.80;99.90
10905;DHT22;5505;51.450;9.254;2023-11-19T16:38:27;10.90;99.90
10905;DHT22;5505;51.450;9.254;2023-11-19T16:41:15;10.80;99.90
10905;DHT22;5505;51.450;9.254;2023-11-19T16:44:05;10.80;99.90
10905;DHT22;5505;51.450;9.254;2023-11-19T16:46:54;10.80;99.90
10905;DHT22;5505;51.450;9.254;2023-11-19T16:49:41;10.90;99.90
10905;DHT22;5505;51.450;9.254;2023-11-19T16:52:28;10.80;99.90
10905;DHT22;5505;51.450;9.254;2023-11-19T16:55:17;10.90;99.90
10905;DHT22;5505;51.450;9.254;2023-11-19T16:58:04;10.90;99.90
10905;DHT22;5505;51.450;9.254;2023-11-19T17:00:51;9.60;99.90
10905;DHT22;5505;51.450;9.254;2023-11-19T17:03:39;10.90;99.90
10905;DHT22;5505;51.450;9.254;2023-11-19T17:06:26;10.90;99.90
10905;DHT22;5505;51.450;9.254;2023-11-19T17:09:13;11.00;99.90
10905;DHT22;5505;51.450;9.254;2023-11-19T17:12:00;10.90;99.90
10905;DHT22;5505;51.450;9.254;2023-11-19T17:14:47;10.90;99.90
10905;DHT22;5505;51.450;9.254;2023-11-19T17:17:33;10.90;99.90
10905;DHT22;5505;51.450;9.254;2023-11-19T17:20:22;10.90;99.90
10905;DHT22;5505;51.450;9.254;2023-11-19T17:23:09;10.80;99.90
10905;DHT22;5505;51.450;9.254;2023-11-19T17:25:56;11.00;99.90
10905;DHT22;5505;51.450;9.254;2023-11-19T17:28:43;10.80;99.90
10905;DHT22;5505;51.450;9.254;2023-11-19T17:31:32;10.60;99.90
10905;DHT22;5505;51.450;9.254;2023-11-19T17:34:20;10.70;99.90
10905;DHT22;5505;51.450;9.254;2023-11-19T17:37:09;10.60;99.90
10905;DHT22;5505;51.450;9.254;2023-11-19T17:39:56;10.70;99.90
10905;DHT22;5505;51.450;9.254;2023-11-19T17:42:44;10.50;99.90
10905;DHT22;5505;51.450;9.254;2023-11-19T17:45:31;11.60;99.90
10905;DHT22;5505;51.450;9.254;2023-11-19T17:48:21;10.60;99.90
10905;DHT22;5505;51.450;9.254;2023-11-19T17:51:08;11.20;99.90
10905;DHT22;5505;51.450;9.254;2023-11-19T17:53:56;10.40;99.90
10905;DHT22;5505;51.450;9.254;2023-11-19T17:56:42;10.50;99.90
10905;DHT22;5505;51.450;9.254;2023-11-19T17:59:29;10.40;99.90
10905;DHT22;5505;51.450;9.254;2023-11-19T18:02:17;10.50;99.90
10905;DHT22;5505;51.450;9.254;2023-11-19T18:05:04;10.50;99.90